WXM80 ListenWXM80 Stop

You find our weather info also at:

UK Metoffice

WeatherCloud

Weather Underground

Northeastern Weather Network

AWEKAS

Citizen Weather Observer Program (CWOP)

HAMweather, WeatherForYou, PWS Weather


Weather Underground History page Text

Daily Summary for July 6, 2017 Units:  Both    English   Metric
« Previous Day
Next Day »
Daily Weekly Monthly Yearly Custom
  High: Low: Average:
Temperature: 79.6 °F /  26.4 °C 65.2 °F /  18.4 °C 71.3 °F /  21.8 °C
Dew Point: 69.3 °F /  20.7 °C 55.3 °F /  12.9 °C 62.6 °F /  17 °C
Humidity: 94 % 47 % 76 %
Wind Speed: 3.4 mph /  5.5 km/h - 0.3 mph /  0.5 km/h
Wind Gust: 7.0 mph /  11.3 km/h - -
Wind:- - SE
Pressure: 30.15 in /  1020.9 hPa 29.94 in /  1013.8 hPa -
Precipitation: 0.00 in /  0 mm    
Historical Graphs
 
 
Tabular Data for July 6, 2017
Time Temperature Dew Point Pressure Wind Wind Speed Wind Gust Humidity Rainfall Rate (Hourly)
00:02 67.0 °F /  19.4 °C 61.7 °F /  16.5 °C 30.15 in /  1020.9 hPa Calm     83 % 0.00 in /  0 mm
00:07 66.8 °F /  19.3 °C 61.5 °F /  16.4 °C 30.15 in /  1020.9 hPa Calm     83 % 0.00 in /  0 mm
00:12 66.7 °F /  19.3 °C 61.4 °F /  16.3 °C 30.15 in /  1020.9 hPa Calm     83 % 0.00 in /  0 mm
00:17 66.6 °F /  19.2 °C 61.3 °F /  16.3 °C 30.15 in /  1020.9 hPa Calm     83 % 0.00 in /  0 mm
00:22 66.5 °F /  19.2 °C 61.2 °F /  16.2 °C 30.15 in /  1020.9 hPa Calm     83 % 0.00 in /  0 mm
00:27 66.4 °F /  19.1 °C 61.4 °F /  16.3 °C 30.14 in /  1020.5 hPa Calm     84 % 0.00 in /  0 mm
00:37 66.4 °F /  19.1 °C 62.1 °F /  16.7 °C 30.15 in /  1020.9 hPa Calm   1.2 mph /  1.9 km/h 86 % 0.00 in /  0 mm
00:42 66.4 °F /  19.1 °C 62.4 °F /  16.9 °C 30.14 in /  1020.5 hPa Calm     87 % 0.00 in /  0 mm
00:47 66.4 °F /  19.1 °C 62.7 °F /  17.1 °C 30.14 in /  1020.5 hPa Calm     88 % 0.00 in /  0 mm
00:52 66.4 °F /  19.1 °C 62.7 °F /  17.1 °C 30.14 in /  1020.5 hPa Calm     88 % 0.00 in /  0 mm
00:57 66.4 °F /  19.1 °C 62.7 °F /  17.1 °C 30.14 in /  1020.5 hPa Calm   1.2 mph /  1.9 km/h 88 % 0.00 in /  0 mm
01:02 66.4 °F /  19.1 °C 62.7 °F /  17.1 °C 30.14 in /  1020.5 hPa Calm     88 % 0.00 in /  0 mm
01:07 66.4 °F /  19.1 °C 62.7 °F /  17.1 °C 30.13 in /  1020.2 hPa Calm     88 % 0.00 in /  0 mm
01:12 66.4 °F /  19.1 °C 62.7 °F /  17.1 °C 30.13 in /  1020.2 hPa Calm     88 % 0.00 in /  0 mm
01:17 66.4 °F /  19.1 °C 62.7 °F /  17.1 °C 30.13 in /  1020.2 hPa Calm     88 % 0.00 in /  0 mm
01:22 66.4 °F /  19.1 °C 62.7 °F /  17.1 °C 30.13 in /  1020.2 hPa Calm     88 % 0.00 in /  0 mm
01:27 66.4 °F /  19.1 °C 62.7 °F /  17.1 °C 30.13 in /  1020.2 hPa Calm     88 % 0.00 in /  0 mm
01:32 66.3 °F /  19.1 °C 62.6 °F /  17 °C 30.12 in /  1019.9 hPa Calm     88 % 0.00 in /  0 mm
01:37 66.3 °F /  19.1 °C 62.6 °F /  17 °C 30.12 in /  1019.9 hPa Calm     88 % 0.00 in /  0 mm
01:42 66.2 °F /  19 °C 62.5 °F /  16.9 °C 30.12 in /  1019.9 hPa Calm     88 % 0.00 in /  0 mm
01:47 66.2 °F /  19 °C 62.5 °F /  16.9 °C 30.12 in /  1019.9 hPa Calm     88 % 0.00 in /  0 mm
01:52 66.1 °F /  18.9 °C 62.1 °F /  16.7 °C 30.12 in /  1019.9 hPa Calm     87 % 0.00 in /  0 mm
01:57 66.1 °F /  18.9 °C 62.4 °F /  16.9 °C 30.12 in /  1019.9 hPa Calm     88 % 0.00 in /  0 mm
02:03 66.0 °F /  18.9 °C 62.3 °F /  16.8 °C 30.12 in /  1019.9 hPa Calm     88 % 0.00 in /  0 mm
02:08 65.9 °F /  18.8 °C 62.2 °F /  16.8 °C 30.13 in /  1020.2 hPa Calm     88 % 0.00 in /  0 mm
02:13 65.9 °F /  18.8 °C 62.2 °F /  16.8 °C 30.12 in /  1019.9 hPa Calm     88 % 0.00 in /  0 mm
02:18 65.8 °F /  18.8 °C 62.1 °F /  16.7 °C 30.12 in /  1019.9 hPa Calm     88 % 0.00 in /  0 mm
02:23 65.8 °F /  18.8 °C 62.1 °F /  16.7 °C 30.12 in /  1019.9 hPa Calm     88 % 0.00 in /  0 mm
02:28 65.7 °F /  18.7 °C 62.4 °F /  16.9 °C 30.12 in /  1019.9 hPa Calm     89 % 0.00 in /  0 mm
02:33 65.7 °F /  18.7 °C 62.4 °F /  16.9 °C 30.12 in /  1019.9 hPa Calm     89 % 0.00 in /  0 mm
02:39 65.7 °F /  18.7 °C 62.4 °F /  16.9 °C 30.12 in /  1019.9 hPa Calm     89 % 0.00 in /  0 mm
02:44 65.6 °F /  18.7 °C 62.3 °F /  16.8 °C 30.12 in /  1019.9 hPa Calm     89 % 0.00 in /  0 mm
02:49 65.6 °F /  18.7 °C 62.3 °F /  16.8 °C 30.12 in /  1019.9 hPa Calm     89 % 0.00 in /  0 mm
02:54 65.5 °F /  18.6 °C 62.2 °F /  16.8 °C 30.13 in /  1020.2 hPa Calm     89 % 0.00 in /  0 mm
02:59 65.4 °F /  18.6 °C 62.1 °F /  16.7 °C 30.12 in /  1019.9 hPa Calm     89 % 0.00 in /  0 mm
03:04 65.4 °F /  18.6 °C 62.1 °F /  16.7 °C 30.12 in /  1019.9 hPa Calm     89 % 0.00 in /  0 mm
03:09 65.4 °F /  18.6 °C 62.1 °F /  16.7 °C 30.12 in /  1019.9 hPa Calm     89 % 0.00 in /  0 mm
03:14 65.4 °F /  18.6 °C 62.4 °F /  16.9 °C 30.12 in /  1019.9 hPa Calm     90 % 0.00 in /  0 mm
03:19 65.3 °F /  18.5 °C 62.3 °F /  16.8 °C 30.12 in /  1019.9 hPa Calm     90 % 0.00 in /  0 mm
03:24 65.3 °F /  18.5 °C 62.0 °F /  16.7 °C 30.12 in /  1019.9 hPa Calm     89 % 0.00 in /  0 mm
03:29 65.3 °F /  18.5 °C 62.0 °F /  16.7 °C 30.12 in /  1019.9 hPa Calm     89 % 0.00 in /  0 mm
03:34 65.2 °F /  18.4 °C 61.9 °F /  16.6 °C 30.12 in /  1019.9 hPa Calm     89 % 0.00 in /  0 mm
03:39 65.2 °F /  18.4 °C 61.9 °F /  16.6 °C 30.11 in /  1019.5 hPa Calm     89 % 0.00 in /  0 mm
03:44 65.2 °F /  18.4 °C 61.9 °F /  16.6 °C 30.11 in /  1019.5 hPa Calm     89 % 0.00 in /  0 mm
03:49 65.2 °F /  18.4 °C 61.9 °F /  16.6 °C 30.11 in /  1019.5 hPa Calm     89 % 0.00 in /  0 mm
03:54 65.2 °F /  18.4 °C 61.9 °F /  16.6 °C 30.11 in /  1019.5 hPa Calm     89 % 0.00 in /  0 mm
03:59 65.2 °F /  18.4 °C 62.2 °F /  16.8 °C 30.11 in /  1019.5 hPa Calm     90 % 0.00 in /  0 mm
04:04 65.2 °F /  18.4 °C 62.2 °F /  16.8 °C 30.11 in /  1019.5 hPa Calm     90 % 0.00 in /  0 mm
04:09 65.2 °F /  18.4 °C 62.2 °F /  16.8 °C 30.11 in /  1019.5 hPa Calm     90 % 0.00 in /  0 mm
04:14 65.2 °F /  18.4 °C 62.2 °F /  16.8 °C 30.11 in /  1019.5 hPa Calm     90 % 0.00 in /  0 mm
04:19 65.2 °F /  18.4 °C 62.2 °F /  16.8 °C 30.11 in /  1019.5 hPa Calm     90 % 0.00 in /  0 mm
04:24 65.2 °F /  18.4 °C 62.2 °F /  16.8 °C 30.10 in /  1019.2 hPa Calm     90 % 0.00 in /  0 mm
04:29 65.2 °F /  18.4 °C 62.5 °F /  16.9 °C 30.10 in /  1019.2 hPa Calm     91 % 0.00 in /  0 mm
04:32 65.2 °F /  18.4 °C 62.5 °F /  16.9 °C 30.11 in /  1019.5 hPa Calm     91 % 0.00 in /  0 mm
04:37 65.2 °F /  18.4 °C 62.5 °F /  16.9 °C 30.11 in /  1019.5 hPa Calm     91 % 0.00 in /  0 mm
04:42 65.2 °F /  18.4 °C 62.5 °F /  16.9 °C 30.11 in /  1019.5 hPa Calm     91 % 0.00 in /  0 mm
04:47 65.2 °F /  18.4 °C 62.8 °F /  17.1 °C 30.11 in /  1019.5 hPa Calm     92 % 0.00 in /  0 mm
04:59 65.2 °F /  18.4 °C 62.8 °F /  17.1 °C 30.11 in /  1019.5 hPa Calm     92 % 0.00 in /  0 mm
05:03 65.2 °F /  18.4 °C 62.8 °F /  17.1 °C 30.11 in /  1019.5 hPa Calm     92 % 0.00 in /  0 mm
05:08 65.3 °F /  18.5 °C 62.9 °F /  17.2 °C 30.11 in /  1019.5 hPa Calm     92 % 0.00 in /  0 mm
05:10 65.2 °F /  18.4 °C 62.8 °F /  17.1 °C 30.11 in /  1019.5 hPa Calm     92 % 0.00 in /  0 mm
05:15 65.3 °F /  18.5 °C 62.9 °F /  17.2 °C 30.11 in /  1019.5 hPa Calm     92 % 0.00 in /  0 mm
05:20 65.3 °F /  18.5 °C 62.9 °F /  17.2 °C 30.11 in /  1019.5 hPa Calm     92 % 0.00 in /  0 mm
05:21 65.3 °F /  18.5 °C 62.9 °F /  17.2 °C 30.10 in /  1019.2 hPa Calm     92 % 0.00 in /  0 mm
05:22 65.3 °F /  18.5 °C 62.9 °F /  17.2 °C 30.11 in /  1019.5 hPa Calm     92 % 0.00 in /  0 mm
05:23 65.3 °F /  18.5 °C 62.9 °F /  17.2 °C 30.10 in /  1019.2 hPa Calm     92 % 0.00 in /  0 mm
05:24 65.3 °F /  18.5 °C 62.9 °F /  17.2 °C 30.11 in /  1019.5 hPa Calm     92 % 0.00 in /  0 mm
05:25 65.3 °F /  18.5 °C 62.9 °F /  17.2 °C 30.10 in /  1019.2 hPa Calm     92 % 0.00 in /  0 mm
05:26 65.3 °F /  18.5 °C 62.9 °F /  17.2 °C 30.11 in /  1019.5 hPa Calm     92 % 0.00 in /  0 mm
05:27 65.3 °F /  18.5 °C 62.9 °F /  17.2 °C 30.11 in /  1019.5 hPa Calm     92 % 0.00 in /  0 mm
05:28 65.3 °F /  18.5 °C 62.9 °F /  17.2 °C 30.11 in /  1019.5 hPa Calm     92 % 0.00 in /  0 mm
05:30 65.4 °F /  18.6 °C 63.0 °F /  17.2 °C 30.11 in /  1019.5 hPa Calm     92 % 0.00 in /  0 mm
05:33 65.4 °F /  18.6 °C 63.0 °F /  17.2 °C 30.10 in /  1019.2 hPa Calm     92 % 0.00 in /  0 mm
05:38 65.4 °F /  18.6 °C 63.0 °F /  17.2 °C 30.11 in /  1019.5 hPa Calm     92 % 0.00 in /  0 mm
05:43 65.5 °F /  18.6 °C 63.4 °F /  17.4 °C 30.11 in /  1019.5 hPa Calm     93 % 0.00 in /  0 mm
05:48 65.6 °F /  18.7 °C 63.5 °F /  17.5 °C 30.10 in /  1019.2 hPa Calm   1.2 mph /  1.9 km/h 93 % 0.00 in /  0 mm
05:53 65.6 °F /  18.7 °C 63.5 °F /  17.5 °C 30.11 in /  1019.5 hPa Calm     93 % 0.00 in /  0 mm
05:58 65.7 °F /  18.7 °C 63.6 °F /  17.6 °C 30.10 in /  1019.2 hPa Calm     93 % 0.00 in /  0 mm
06:03 65.7 °F /  18.7 °C 63.6 °F /  17.6 °C 30.10 in /  1019.2 hPa Calm     93 % 0.00 in /  0 mm
06:08 65.8 °F /  18.8 °C 63.7 °F /  17.6 °C 30.10 in /  1019.2 hPa SE 0.1 mph /  0.2 km/h 1.2 mph /  1.9 km/h 93 % 0.00 in /  0 mm
06:13 65.8 °F /  18.8 °C 63.7 °F /  17.6 °C 30.11 in /  1019.5 hPa Calm     93 % 0.00 in /  0 mm
06:18 65.9 °F /  18.8 °C 63.8 °F /  17.7 °C 30.11 in /  1019.5 hPa Calm     93 % 0.00 in /  0 mm
06:23 66.0 °F /  18.9 °C 63.9 °F /  17.7 °C 30.11 in /  1019.5 hPa Calm     93 % 0.00 in /  0 mm
06:28 66.0 °F /  18.9 °C 63.9 °F /  17.7 °C 30.11 in /  1019.5 hPa Calm     93 % 0.00 in /  0 mm
06:33 66.1 °F /  18.9 °C 64.0 °F /  17.8 °C 30.11 in /  1019.5 hPa Calm     93 % 0.00 in /  0 mm
06:38 66.2 °F /  19 °C 64.1 °F /  17.8 °C 30.11 in /  1019.5 hPa Calm     93 % 0.00 in /  0 mm
06:44 66.3 °F /  19.1 °C 64.2 °F /  17.9 °C 30.11 in /  1019.5 hPa Calm     93 % 0.00 in /  0 mm
06:49 66.3 °F /  19.1 °C 64.2 °F /  17.9 °C 30.11 in /  1019.5 hPa Calm     93 % 0.00 in /  0 mm
06:54 66.6 °F /  19.2 °C 64.5 °F /  18.1 °C 30.11 in /  1019.5 hPa Calm     93 % 0.00 in /  0 mm
06:58 66.7 °F /  19.3 °C 64.9 °F /  18.3 °C 30.11 in /  1019.5 hPa Calm     94 % 0.00 in /  0 mm
07:04 66.8 °F /  19.3 °C 65.0 °F /  18.3 °C 30.11 in /  1019.5 hPa Calm     94 % 0.00 in /  0 mm
07:08 66.9 °F /  19.4 °C 64.8 °F /  18.2 °C 30.11 in /  1019.5 hPa Calm     93 % 0.00 in /  0 mm
07:13 67.1 °F /  19.5 °C 65.0 °F /  18.3 °C 30.11 in /  1019.5 hPa Calm     93 % 0.00 in /  0 mm
07:18 67.3 °F /  19.6 °C 65.5 °F /  18.6 °C 30.11 in /  1019.5 hPa Calm     94 % 0.00 in /  0 mm
07:24 67.5 °F /  19.7 °C 65.4 °F /  18.6 °C 30.10 in /  1019.2 hPa Calm     93 % 0.00 in /  0 mm
07:29 67.7 °F /  19.8 °C 65.6 °F /  18.7 °C 30.10 in /  1019.2 hPa Calm     93 % 0.00 in /  0 mm
07:34 67.8 °F /  19.9 °C 65.7 °F /  18.7 °C 30.10 in /  1019.2 hPa Calm     93 % 0.00 in /  0 mm
07:39 68.0 °F /  20 °C 65.9 °F /  18.8 °C 30.10 in /  1019.2 hPa Calm     93 % 0.00 in /  0 mm
07:44 68.1 °F /  20.1 °C 66.0 °F /  18.9 °C 30.10 in /  1019.2 hPa Calm     93 % 0.00 in /  0 mm
07:49 68.2 °F /  20.1 °C 65.8 °F /  18.8 °C 30.10 in /  1019.2 hPa Calm     92 % 0.00 in /  0 mm
07:52 68.3 °F /  20.2 °C 65.9 °F /  18.8 °C 30.11 in /  1019.5 hPa Calm     92 % 0.00 in /  0 mm
07:57 68.4 °F /  20.2 °C 66.0 °F /  18.9 °C 30.11 in /  1019.5 hPa Calm   1.2 mph /  1.9 km/h 92 % 0.00 in /  0 mm
08:02 68.6 °F /  20.3 °C 66.2 °F /  19 °C 30.11 in /  1019.5 hPa Calm     92 % 0.00 in /  0 mm
08:07 68.7 °F /  20.4 °C 66.3 °F /  19.1 °C 30.11 in /  1019.5 hPa Calm     92 % 0.00 in /  0 mm
08:12 68.9 °F /  20.5 °C 66.5 °F /  19.2 °C 30.11 in /  1019.5 hPa Calm     92 % 0.00 in /  0 mm
08:17 69.0 °F /  20.6 °C 66.3 °F /  19.1 °C 30.11 in /  1019.5 hPa ENE 0.1 mph /  0.2 km/h 1.2 mph /  1.9 km/h 91 % 0.00 in /  0 mm
08:22 69.1 °F /  20.6 °C 66.4 °F /  19.1 °C 30.11 in /  1019.5 hPa Calm   1.2 mph /  1.9 km/h 91 % 0.00 in /  0 mm
08:27 69.2 °F /  20.7 °C 66.5 °F /  19.2 °C 30.11 in /  1019.5 hPa Calm   1.2 mph /  1.9 km/h 91 % 0.00 in /  0 mm
08:32 69.3 °F /  20.7 °C 66.2 °F /  19 °C 30.12 in /  1019.9 hPa Calm     90 % 0.00 in /  0 mm
08:37 69.4 °F /  20.8 °C 66.3 °F /  19.1 °C 30.11 in /  1019.5 hPa Calm     90 % 0.00 in /  0 mm
08:42 69.4 °F /  20.8 °C 66.3 °F /  19.1 °C 30.11 in /  1019.5 hPa Calm     90 % 0.00 in /  0 mm
08:47 69.5 °F /  20.8 °C 66.4 °F /  19.1 °C 30.11 in /  1019.5 hPa Calm     90 % 0.00 in /  0 mm
08:52 69.6 °F /  20.9 °C 66.5 °F /  19.2 °C 30.11 in /  1019.5 hPa Calm     90 % 0.00 in /  0 mm
08:57 69.8 °F /  21 °C 67.1 °F /  19.5 °C 30.11 in /  1019.5 hPa Calm     91 % 0.00 in /  0 mm
09:02 70.0 °F /  21.1 °C 67.3 °F /  19.6 °C 30.11 in /  1019.5 hPa Calm     91 % 0.00 in /  0 mm
09:07 70.2 °F /  21.2 °C 67.4 °F /  19.7 °C 30.11 in /  1019.5 hPa Calm     91 % 0.00 in /  0 mm
09:12 70.3 °F /  21.3 °C 67.5 °F /  19.7 °C 30.11 in /  1019.5 hPa Calm     91 % 0.00 in /  0 mm
09:17 70.4 °F /  21.3 °C 67.3 °F /  19.6 °C 30.11 in /  1019.5 hPa Calm     90 % 0.00 in /  0 mm
09:23 70.6 °F /  21.4 °C 67.8 °F /  19.9 °C 30.11 in /  1019.5 hPa Calm     91 % 0.00 in /  0 mm
09:37 71.2 °F /  21.8 °C 68.1 °F /  20.1 °C 30.11 in /  1019.5 hPa NNW 0.4 mph /  0.6 km/h 2.3 mph /  3.7 km/h 90 % 0.00 in /  0 mm
09:42 71.5 °F /  21.9 °C 67.8 °F /  19.9 °C 30.11 in /  1019.5 hPa NNW 0.1 mph /  0.2 km/h 1.2 mph /  1.9 km/h 88 % 0.00 in /  0 mm
09:48 71.9 °F /  22.2 °C 68.2 °F /  20.1 °C 30.11 in /  1019.5 hPa Calm   2.3 mph /  3.7 km/h 88 % 0.00 in /  0 mm
10:00 72.4 °F /  22.4 °C 68.0 °F /  20 °C 30.11 in /  1019.5 hPa NE 1.3 mph /  2.1 km/h 4.0 mph /  6.4 km/h 86 % 0.00 in /  0 mm
10:05 72.6 °F /  22.6 °C 68.2 °F /  20.1 °C 30.11 in /  1019.5 hPa Calm   2.3 mph /  3.7 km/h 86 % 0.00 in /  0 mm
10:11 72.8 °F /  22.7 °C 68.4 °F /  20.2 °C 30.11 in /  1019.5 hPa Calm   1.0 mph /  1.6 km/h 86 % 0.00 in /  0 mm
10:16 72.9 °F /  22.7 °C 68.1 °F /  20.1 °C 30.12 in /  1019.9 hPa Calm   2.0 mph /  3.2 km/h 85 % 0.00 in /  0 mm
10:21 73.1 °F /  22.8 °C 68.3 °F /  20.2 °C 30.12 in /  1019.9 hPa Calm   2.0 mph /  3.2 km/h 85 % 0.00 in /  0 mm
10:26 73.2 °F /  22.9 °C 68.4 °F /  20.2 °C 30.12 in /  1019.9 hPa Calm   3.0 mph /  4.8 km/h 85 % 0.00 in /  0 mm
10:31 73.4 °F /  23 °C 68.6 °F /  20.3 °C 30.12 in /  1019.9 hPa Calm   3.5 mph /  5.6 km/h 85 % 0.00 in /  0 mm
10:36 73.5 °F /  23.1 °C 68.4 °F /  20.2 °C 30.12 in /  1019.9 hPa NE 0.4 mph /  0.6 km/h 3.5 mph /  5.6 km/h 84 % 0.00 in /  0 mm
10:41 73.5 °F /  23.1 °C 68.4 °F /  20.2 °C 30.12 in /  1019.9 hPa NNE 0.1 mph /  0.2 km/h 1.2 mph /  1.9 km/h 84 % 0.00 in /  0 mm
10:46 73.6 °F /  23.1 °C 68.5 °F /  20.3 °C 30.12 in /  1019.9 hPa NE 0.1 mph /  0.2 km/h 2.3 mph /  3.7 km/h 84 % 0.00 in /  0 mm
10:51 73.7 °F /  23.2 °C 68.6 °F /  20.3 °C 30.11 in /  1019.5 hPa Calm     84 % 0.00 in /  0 mm
10:56 73.8 °F /  23.2 °C 68.7 °F /  20.4 °C 30.11 in /  1019.5 hPa Calm     84 % 0.00 in /  0 mm
11:16 74.3 °F /  23.5 °C 68.8 °F /  20.4 °C 30.12 in /  1019.9 hPa NE 1.6 mph /  2.6 km/h 4.0 mph /  6.4 km/h 83 % 0.00 in /  0 mm
11:21 74.4 °F /  23.6 °C 68.5 °F /  20.3 °C 30.11 in /  1019.5 hPa ENE 1.6 mph /  2.6 km/h 3.5 mph /  5.6 km/h 82 % 0.00 in /  0 mm
11:26 74.5 °F /  23.6 °C 68.6 °F /  20.3 °C 30.11 in /  1019.5 hPa Calm   1.2 mph /  1.9 km/h 82 % 0.00 in /  0 mm
11:31 74.6 °F /  23.7 °C 68.7 °F /  20.4 °C 30.11 in /  1019.5 hPa NE 0.4 mph /  0.6 km/h 2.3 mph /  3.7 km/h 82 % 0.00 in /  0 mm
11:36 74.8 °F /  23.8 °C 68.9 °F /  20.5 °C 30.11 in /  1019.5 hPa NE 0.2 mph /  0.3 km/h 1.2 mph /  1.9 km/h 82 % 0.00 in /  0 mm
11:41 75.0 °F /  23.9 °C 68.8 °F /  20.4 °C 30.10 in /  1019.2 hPa NE 0.2 mph /  0.3 km/h 1.2 mph /  1.9 km/h 81 % 0.00 in /  0 mm
11:46 75.1 °F /  23.9 °C 68.9 °F /  20.5 °C 30.10 in /  1019.2 hPa Calm     81 % 0.00 in /  0 mm
11:51 75.3 °F /  24.1 °C 69.1 °F /  20.6 °C 30.10 in /  1019.2 hPa NE 0.1 mph /  0.2 km/h 1.2 mph /  1.9 km/h 81 % 0.00 in /  0 mm
11:56 75.5 °F /  24.2 °C 69.3 °F /  20.7 °C 30.10 in /  1019.2 hPa NNW 0.5 mph /  0.8 km/h 1.2 mph /  1.9 km/h 81 % 0.00 in /  0 mm
12:01 75.6 °F /  24.2 °C 69.0 °F /  20.6 °C 30.09 in /  1018.8 hPa Calm   1.2 mph /  1.9 km/h 80 % 0.00 in /  0 mm
12:06 75.7 °F /  24.3 °C 69.1 °F /  20.6 °C 30.09 in /  1018.8 hPa NNE 0.8 mph /  1.3 km/h 2.3 mph /  3.7 km/h 80 % 0.00 in /  0 mm
12:11 75.7 °F /  24.3 °C 68.7 °F /  20.4 °C 30.09 in /  1018.8 hPa NNE 0.2 mph /  0.3 km/h 1.2 mph /  1.9 km/h 79 % 0.00 in /  0 mm
12:16 75.8 °F /  24.3 °C 68.8 °F /  20.4 °C 30.09 in /  1018.8 hPa NNE 0.4 mph /  0.6 km/h 1.2 mph /  1.9 km/h 79 % 0.00 in /  0 mm
12:21 75.9 °F /  24.4 °C 68.2 °F /  20.1 °C 30.09 in /  1018.8 hPa NE 0.7 mph /  1.1 km/h 2.3 mph /  3.7 km/h 77 % 0.00 in /  0 mm
12:26 75.8 °F /  24.3 °C 65.7 °F /  18.7 °C 30.09 in /  1018.8 hPa SE 1.6 mph /  2.6 km/h 4.0 mph /  6.4 km/h 71 % 0.00 in /  0 mm
12:31 75.8 °F /  24.3 °C 65.7 °F /  18.7 °C 30.09 in /  1018.8 hPa Calm   2.3 mph /  3.7 km/h 71 % 0.00 in /  0 mm
12:36 75.9 °F /  24.4 °C 64.2 °F /  17.9 °C 30.09 in /  1018.8 hPa SE 1.4 mph /  2.3 km/h 3.5 mph /  5.6 km/h 67 % 0.00 in /  0 mm
12:41 76.0 °F /  24.4 °C 64.2 °F /  17.9 °C 30.09 in /  1018.8 hPa SSE 1.5 mph /  2.4 km/h 2.3 mph /  3.7 km/h 67 % 0.00 in /  0 mm
12:46 76.0 °F /  24.4 °C 63.4 °F /  17.4 °C 30.09 in /  1018.8 hPa SSE 0.9 mph /  1.4 km/h 3.5 mph /  5.6 km/h 65 % 0.00 in /  0 mm
12:51 75.9 °F /  24.4 °C 62.4 °F /  16.9 °C 30.08 in /  1018.5 hPa Calm   2.3 mph /  3.7 km/h 63 % 0.00 in /  0 mm
12:56 75.9 °F /  24.4 °C 61.9 °F /  16.6 °C 30.08 in /  1018.5 hPa SE 0.1 mph /  0.2 km/h 3.5 mph /  5.6 km/h 62 % 0.00 in /  0 mm
13:01 75.9 °F /  24.4 °C 63.7 °F /  17.6 °C 30.08 in /  1018.5 hPa SE 0.3 mph /  0.5 km/h 2.3 mph /  3.7 km/h 66 % 0.00 in /  0 mm
13:06 75.9 °F /  24.4 °C 63.3 °F /  17.4 °C 30.08 in /  1018.5 hPa SE 1.1 mph /  1.8 km/h 3.5 mph /  5.6 km/h 65 % 0.00 in /  0 mm
13:11 75.9 °F /  24.4 °C 64.2 °F /  17.9 °C 30.08 in /  1018.5 hPa Calm     67 % 0.00 in /  0 mm
13:16 75.9 °F /  24.4 °C 64.2 °F /  17.9 °C 30.08 in /  1018.5 hPa SE 1.3 mph /  2.1 km/h 3.0 mph /  4.8 km/h 67 % 0.00 in /  0 mm
13:21 75.8 °F /  24.3 °C 63.2 °F /  17.3 °C 30.08 in /  1018.5 hPa SE 0.7 mph /  1.1 km/h 1.2 mph /  1.9 km/h 65 % 0.00 in /  0 mm
13:26 75.8 °F /  24.3 °C 65.3 °F /  18.5 °C 30.08 in /  1018.5 hPa SE 1.0 mph /  1.6 km/h 3.5 mph /  5.6 km/h 70 % 0.00 in /  0 mm
13:32 75.8 °F /  24.3 °C 65.3 °F /  18.5 °C 30.08 in /  1018.5 hPa Calm   1.2 mph /  1.9 km/h 70 % 0.00 in /  0 mm
13:37 75.8 °F /  24.3 °C 64.9 °F /  18.3 °C 30.08 in /  1018.5 hPa Calm   1.0 mph /  1.6 km/h 69 % 0.00 in /  0 mm
13:42 75.8 °F /  24.3 °C 65.3 °F /  18.5 °C 30.08 in /  1018.5 hPa Calm   1.2 mph /  1.9 km/h 70 % 0.00 in /  0 mm
13:47 75.8 °F /  24.3 °C 64.9 °F /  18.3 °C 30.08 in /  1018.5 hPa SE 0.3 mph /  0.5 km/h 2.3 mph /  3.7 km/h 69 % 0.00 in /  0 mm
13:52 75.8 °F /  24.3 °C 65.3 °F /  18.5 °C 30.08 in /  1018.5 hPa SSE 1.4 mph /  2.3 km/h 3.5 mph /  5.6 km/h 70 % 0.00 in /  0 mm
13:57 75.8 °F /  24.3 °C 64.5 °F /  18.1 °C 30.07 in /  1018.2 hPa ESE 2.1 mph /  3.4 km/h 3.5 mph /  5.6 km/h 68 % 0.00 in /  0 mm
14:02 75.7 °F /  24.3 °C 63.1 °F /  17.3 °C 30.07 in /  1018.2 hPa SE 1.0 mph /  1.6 km/h 2.0 mph /  3.2 km/h 65 % 0.00 in /  0 mm
14:07 75.7 °F /  24.3 °C 63.5 °F /  17.5 °C 30.07 in /  1018.2 hPa SSE 1.1 mph /  1.8 km/h 4.0 mph /  6.4 km/h 66 % 0.00 in /  0 mm
14:11 75.8 °F /  24.3 °C 64.5 °F /  18.1 °C 30.07 in /  1018.2 hPa SSE 1.0 mph /  1.6 km/h 5.0 mph /  8 km/h 68 % 0.00 in /  0 mm
14:16 75.8 °F /  24.3 °C 63.2 °F /  17.3 °C 30.07 in /  1018.2 hPa SE 3.0 mph /  4.8 km/h 7.0 mph /  11.3 km/h 65 % 0.00 in /  0 mm
14:21 75.9 °F /  24.4 °C 62.8 °F /  17.1 °C 30.07 in /  1018.2 hPa SE 1.0 mph /  1.6 km/h 4.0 mph /  6.4 km/h 64 % 0.00 in /  0 mm
14:26 76.0 °F /  24.4 °C 62.5 °F /  16.9 °C 30.07 in /  1018.2 hPa SE 1.0 mph /  1.6 km/h 4.0 mph /  6.4 km/h 63 % 0.00 in /  0 mm
14:31 76.1 °F /  24.5 °C 62.6 °F /  17 °C 30.07 in /  1018.2 hPa SSE 2.8 mph /  4.5 km/h 5.8 mph /  9.3 km/h 63 % 0.00 in /  0 mm
14:36 76.1 °F /  24.5 °C 62.1 °F /  16.7 °C 30.06 in /  1017.8 hPa SE 1.0 mph /  1.6 km/h 6.0 mph /  9.7 km/h 62 % 0.00 in /  0 mm
14:41 76.2 °F /  24.6 °C 63.6 °F /  17.6 °C 30.07 in /  1018.2 hPa Calm   3.0 mph /  4.8 km/h 65 % 0.00 in /  0 mm
14:45 76.2 °F /  24.6 °C 62.2 °F /  16.8 °C 30.06 in /  1017.8 hPa Calm   4.6 mph /  7.4 km/h 62 % 0.00 in /  0 mm
14:51 76.2 °F /  24.6 °C 61.8 °F /  16.6 °C 30.06 in /  1017.8 hPa SE 1.0 mph /  1.6 km/h 5.0 mph /  8 km/h 61 % 0.00 in /  0 mm
14:53 76.2 °F /  24.6 °C 61.8 °F /  16.6 °C 30.06 in /  1017.8 hPa SE 1.4 mph /  2.3 km/h 3.5 mph /  5.6 km/h 61 % 0.00 in /  0 mm
15:00 76.3 °F /  24.6 °C 61.9 °F /  16.6 °C 30.06 in /  1017.8 hPa SSE 3.4 mph /  5.5 km/h 5.0 mph /  8 km/h 61 % 0.00 in /  0 mm
15:05 76.5 °F /  24.7 °C 63.4 °F /  17.4 °C 30.06 in /  1017.8 hPa SE 0.2 mph /  0.3 km/h 1.0 mph /  1.6 km/h 64 % 0.00 in /  0 mm
15:10 76.7 °F /  24.8 °C 64.0 °F /  17.8 °C 30.05 in /  1017.5 hPa SE 2.9 mph /  4.7 km/h 4.6 mph /  7.4 km/h 65 % 0.00 in /  0 mm
15:15 76.9 °F /  24.9 °C 61.0 °F /  16.1 °C 30.05 in /  1017.5 hPa SSE 1.8 mph /  2.9 km/h 3.5 mph /  5.6 km/h 58 % 0.00 in /  0 mm
15:25 77.2 °F /  25.1 °C 61.3 °F /  16.3 °C 30.04 in /  1017.2 hPa SSE 2.2 mph /  3.5 km/h 6.0 mph /  9.7 km/h 58 % 0.00 in /  0 mm
15:30 77.3 °F /  25.2 °C 61.9 °F /  16.6 °C 30.04 in /  1017.2 hPa NNE 0.1 mph /  0.2 km/h 1.2 mph /  1.9 km/h 59 % 0.00 in /  0 mm
15:34 77.5 °F /  25.3 °C 65.2 °F /  18.4 °C 30.04 in /  1017.2 hPa Calm     66 % 0.00 in /  0 mm
15:39 77.7 °F /  25.4 °C 64.1 °F /  17.8 °C 30.04 in /  1017.2 hPa SSE 0.8 mph /  1.3 km/h 3.5 mph /  5.6 km/h 63 % 0.00 in /  0 mm
15:44 77.8 °F /  25.4 °C 60.8 °F /  16 °C 30.04 in /  1017.2 hPa SE 2.2 mph /  3.5 km/h 4.6 mph /  7.4 km/h 56 % 0.00 in /  0 mm
15:49 78.0 °F /  25.6 °C 60.0 °F /  15.6 °C 30.04 in /  1017.2 hPa SE 1.2 mph /  1.9 km/h 4.6 mph /  7.4 km/h 54 % 0.00 in /  0 mm
15:54 78.2 °F /  25.7 °C 62.2 °F /  16.8 °C 30.03 in /  1016.8 hPa SE 0.3 mph /  0.5 km/h 4.6 mph /  7.4 km/h 58 % 0.00 in /  0 mm
15:59 78.6 °F /  25.9 °C 62.1 °F /  16.7 °C 30.03 in /  1016.8 hPa SE 1.7 mph /  2.7 km/h 3.5 mph /  5.6 km/h 57 % 0.00 in /  0 mm
16:04 78.8 °F /  26 °C 61.8 °F /  16.6 °C 30.03 in /  1016.8 hPa SE 0.5 mph /  0.8 km/h 2.3 mph /  3.7 km/h 56 % 0.00 in /  0 mm
16:09 79.1 °F /  26.2 °C 62.1 °F /  16.7 °C 30.03 in /  1016.8 hPa SE 2.7 mph /  4.3 km/h 3.5 mph /  5.6 km/h 56 % 0.00 in /  0 mm
16:14 79.3 °F /  26.3 °C 62.7 °F /  17.1 °C 30.02 in /  1016.5 hPa SSE 1.5 mph /  2.4 km/h 4.0 mph /  6.4 km/h 57 % 0.00 in /  0 mm
16:19 79.4 °F /  26.3 °C 62.8 °F /  17.1 °C 30.02 in /  1016.5 hPa SE 0.1 mph /  0.2 km/h 1.2 mph /  1.9 km/h 57 % 0.00 in /  0 mm
16:24 79.6 °F /  26.4 °C 61.5 °F /  16.4 °C 30.02 in /  1016.5 hPa SE 1.7 mph /  2.7 km/h 4.6 mph /  7.4 km/h 54 % 0.00 in /  0 mm
16:29 79.6 °F /  26.4 °C 59.3 °F /  15.2 °C 30.02 in /  1016.5 hPa SE 0.8 mph /  1.3 km/h 3.5 mph /  5.6 km/h 50 % 0.00 in /  0 mm
16:34 79.6 °F /  26.4 °C 62.0 °F /  16.7 °C 30.02 in /  1016.5 hPa SE 0.2 mph /  0.3 km/h 1.2 mph /  1.9 km/h 55 % 0.00 in /  0 mm
16:39 79.6 °F /  26.4 °C 61.0 °F /  16.1 °C 30.02 in /  1016.5 hPa Calm   1.2 mph /  1.9 km/h 53 % 0.00 in /  0 mm
16:44 79.6 °F /  26.4 °C 61.5 °F /  16.4 °C 30.01 in /  1016.1 hPa SE 0.8 mph /  1.3 km/h 2.0 mph /  3.2 km/h 54 % 0.00 in /  0 mm
16:49 79.5 °F /  26.4 °C 59.2 °F /  15.1 °C 30.01 in /  1016.1 hPa Calm   3.5 mph /  5.6 km/h 50 % 0.00 in /  0 mm
16:54 79.4 °F /  26.3 °C 60.2 °F /  15.7 °C 30.01 in /  1016.1 hPa SE 0.3 mph /  0.5 km/h 1.2 mph /  1.9 km/h 52 % 0.00 in /  0 mm
16:59 79.3 °F /  26.3 °C 60.7 °F /  15.9 °C 30.00 in /  1015.8 hPa SE 0.8 mph /  1.3 km/h 2.3 mph /  3.7 km/h 53 % 0.00 in /  0 mm
17:04 79.3 °F /  26.3 °C 60.1 °F /  15.6 °C 30.00 in /  1015.8 hPa SSE 0.7 mph /  1.1 km/h 3.5 mph /  5.6 km/h 52 % 0.00 in /  0 mm
17:09 79.2 °F /  26.2 °C 59.0 °F /  15 °C 30.00 in /  1015.8 hPa SE 3.2 mph /  5.1 km/h 5.8 mph /  9.3 km/h 50 % 0.00 in /  0 mm
17:15 79.2 °F /  26.2 °C 58.4 °F /  14.7 °C 30.00 in /  1015.8 hPa SE 1.5 mph /  2.4 km/h 3.0 mph /  4.8 km/h 49 % 0.00 in /  0 mm
17:20 79.0 °F /  26.1 °C 57.0 °F /  13.9 °C 30.00 in /  1015.8 hPa SE 1.9 mph /  3.1 km/h 4.6 mph /  7.4 km/h 47 % 0.00 in /  0 mm
17:25 78.9 °F /  26.1 °C 58.7 °F /  14.8 °C 30.00 in /  1015.8 hPa Calm   1.2 mph /  1.9 km/h 50 % 0.00 in /  0 mm
17:30 78.8 °F /  26 °C 58.0 °F /  14.4 °C 29.99 in /  1015.5 hPa Calm   1.2 mph /  1.9 km/h 49 % 0.00 in /  0 mm
17:35 78.8 °F /  26 °C 60.2 °F /  15.7 °C 29.99 in /  1015.5 hPa SSE 1.3 mph /  2.1 km/h 3.5 mph /  5.6 km/h 53 % 0.00 in /  0 mm
17:40 78.7 °F /  25.9 °C 59.6 °F /  15.3 °C 29.99 in /  1015.5 hPa SSE 1.2 mph /  1.9 km/h 3.5 mph /  5.6 km/h 52 % 0.00 in /  0 mm
17:45 78.6 °F /  25.9 °C 58.4 °F /  14.7 °C 29.99 in /  1015.5 hPa SE 0.9 mph /  1.4 km/h 3.5 mph /  5.6 km/h 50 % 0.00 in /  0 mm
17:50 78.5 °F /  25.8 °C 56.6 °F /  13.7 °C 29.99 in /  1015.5 hPa SE 2.3 mph /  3.7 km/h 5.8 mph /  9.3 km/h 47 % 0.00 in /  0 mm
17:55 78.5 °F /  25.8 °C 57.2 °F /  14 °C 29.98 in /  1015.1 hPa SSE 1.5 mph /  2.4 km/h 3.5 mph /  5.6 km/h 48 % 0.00 in /  0 mm
18:00 78.4 °F /  25.8 °C 57.7 °F /  14.3 °C 29.99 in /  1015.5 hPa SSW 0.4 mph /  0.6 km/h 2.3 mph /  3.7 km/h 49 % 0.00 in /  0 mm
18:05 78.3 °F /  25.7 °C 57.0 °F /  13.9 °C 29.99 in /  1015.5 hPa Calm   1.2 mph /  1.9 km/h 48 % 0.00 in /  0 mm
18:11 78.2 °F /  25.7 °C 56.3 °F /  13.5 °C 29.98 in /  1015.1 hPa SE 1.3 mph /  2.1 km/h 3.5 mph /  5.6 km/h 47 % 0.00 in /  0 mm
18:16 78.0 °F /  25.6 °C 57.9 °F /  14.4 °C 29.98 in /  1015.1 hPa Calm   2.0 mph /  3.2 km/h 50 % 0.00 in /  0 mm
18:21 77.8 °F /  25.4 °C 56.5 °F /  13.6 °C 29.99 in /  1015.5 hPa Calm   3.0 mph /  4.8 km/h 48 % 0.00 in /  0 mm
18:26 77.6 °F /  25.3 °C 56.9 °F /  13.8 °C 29.99 in /  1015.5 hPa East 1.0 mph /  1.6 km/h 2.0 mph /  3.2 km/h 49 % 0.00 in /  0 mm
18:31 77.5 °F /  25.3 °C 57.9 °F /  14.4 °C 29.98 in /  1015.1 hPa Calm   5.0 mph /  8 km/h 51 % 0.00 in /  0 mm
18:36 77.4 °F /  25.2 °C 56.2 °F /  13.4 °C 29.99 in /  1015.5 hPa SE 1.0 mph /  1.6 km/h 5.0 mph /  8 km/h 48 % 0.00 in /  0 mm
18:41 77.3 °F /  25.2 °C 56.6 °F /  13.7 °C 29.99 in /  1015.5 hPa Calm   5.0 mph /  8 km/h 49 % 0.00 in /  0 mm
18:46 77.1 °F /  25.1 °C 55.3 °F /  12.9 °C 29.99 in /  1015.5 hPa SSE 1.0 mph /  1.6 km/h 6.0 mph /  9.7 km/h 47 % 0.00 in /  0 mm
18:51 76.8 °F /  24.9 °C 55.6 °F /  13.1 °C 29.99 in /  1015.5 hPa SE 2.0 mph /  3.2 km/h 3.5 mph /  5.6 km/h 48 % 0.00 in /  0 mm
18:56 76.7 °F /  24.8 °C 56.6 °F /  13.7 °C 29.99 in /  1015.5 hPa Calm   3.0 mph /  4.8 km/h 50 % 0.00 in /  0 mm
19:01 76.4 °F /  24.7 °C 55.8 °F /  13.2 °C 29.99 in /  1015.5 hPa SE 1.4 mph /  2.3 km/h 5.8 mph /  9.3 km/h 49 % 0.00 in /  0 mm
19:06 76.3 °F /  24.6 °C 56.8 °F /  13.8 °C 29.99 in /  1015.5 hPa SE 1.0 mph /  1.6 km/h 6.0 mph /  9.7 km/h 51 % 0.00 in /  0 mm
19:11 76.1 °F /  24.5 °C 57.2 °F /  14 °C 29.99 in /  1015.5 hPa SE 0.4 mph /  0.6 km/h 3.5 mph /  5.6 km/h 52 % 0.00 in /  0 mm
19:16 76.0 °F /  24.4 °C 57.1 °F /  13.9 °C 29.98 in /  1015.1 hPa SE 0.1 mph /  0.2 km/h 1.2 mph /  1.9 km/h 52 % 0.00 in /  0 mm
19:21 75.8 °F /  24.3 °C 58.0 °F /  14.4 °C 29.99 in /  1015.5 hPa Calm     54 % 0.00 in /  0 mm
19:26 75.6 °F /  24.2 °C 57.3 °F /  14.1 °C 29.98 in /  1015.1 hPa Calm     53 % 0.00 in /  0 mm
19:31 75.3 °F /  24.1 °C 57.5 °F /  14.2 °C 29.98 in /  1015.1 hPa SE 0.4 mph /  0.6 km/h 2.3 mph /  3.7 km/h 54 % 0.00 in /  0 mm
19:36 75.1 °F /  23.9 °C 57.8 °F /  14.3 °C 29.98 in /  1015.1 hPa Calm   1.2 mph /  1.9 km/h 55 % 0.00 in /  0 mm
19:41 74.9 °F /  23.8 °C 58.1 °F /  14.5 °C 29.98 in /  1015.1 hPa Calm     56 % 0.00 in /  0 mm
19:50 74.4 °F /  23.6 °C 58.2 °F /  14.6 °C 29.98 in /  1015.1 hPa Calm   2.3 mph /  3.7 km/h 57 % 0.00 in /  0 mm
19:55 74.2 °F /  23.4 °C 58.5 °F /  14.7 °C 29.98 in /  1015.1 hPa Calm   1.2 mph /  1.9 km/h 58 % 0.00 in /  0 mm
20:00 74.0 °F /  23.3 °C 58.8 °F /  14.9 °C 29.98 in /  1015.1 hPa Calm     59 % 0.00 in /  0 mm
20:05 73.8 °F /  23.2 °C 58.1 °F /  14.5 °C 29.98 in /  1015.1 hPa SE 0.2 mph /  0.3 km/h 1.2 mph /  1.9 km/h 58 % 0.00 in /  0 mm
20:11 73.5 °F /  23.1 °C 58.3 °F /  14.6 °C 29.97 in /  1014.8 hPa SSE 1.2 mph /  1.9 km/h 3.5 mph /  5.6 km/h 59 % 0.00 in /  0 mm
20:14 73.4 °F /  23 °C 58.2 °F /  14.6 °C 29.98 in /  1015.1 hPa ESE 0.1 mph /  0.2 km/h   59 % 0.00 in /  0 mm
20:19 73.2 °F /  22.9 °C 58.0 °F /  14.4 °C 29.98 in /  1015.1 hPa ESE 0.1 mph /  0.2 km/h 1.2 mph /  1.9 km/h 59 % 0.00 in /  0 mm
20:24 73.0 °F /  22.8 °C 58.3 °F /  14.6 °C 29.97 in /  1014.8 hPa ESE 0.1 mph /  0.2 km/h 2.3 mph /  3.7 km/h 60 % 0.00 in /  0 mm
20:29 72.8 °F /  22.7 °C 58.1 °F /  14.5 °C 29.97 in /  1014.8 hPa ESE 0.8 mph /  1.3 km/h 2.3 mph /  3.7 km/h 60 % 0.00 in /  0 mm
20:34 72.6 °F /  22.6 °C 58.4 °F /  14.7 °C 29.97 in /  1014.8 hPa ESE 0.5 mph /  0.8 km/h 1.2 mph /  1.9 km/h 61 % 0.00 in /  0 mm
20:39 72.4 °F /  22.4 °C 58.2 °F /  14.6 °C 29.97 in /  1014.8 hPa ESE 1.2 mph /  1.9 km/h 2.3 mph /  3.7 km/h 61 % 0.00 in /  0 mm
20:44 72.3 °F /  22.4 °C 58.5 °F /  14.7 °C 29.97 in /  1014.8 hPa ESE 0.5 mph /  0.8 km/h 2.3 mph /  3.7 km/h 62 % 0.00 in /  0 mm
20:49 72.2 °F /  22.3 °C 58.5 °F /  14.7 °C 29.97 in /  1014.8 hPa Calm   3.5 mph /  5.6 km/h 62 % 0.00 in /  0 mm
20:54 72.0 °F /  22.2 °C 58.7 °F /  14.8 °C 29.97 in /  1014.8 hPa Calm     63 % 0.00 in /  0 mm
20:59 71.9 °F /  22.2 °C 58.6 °F /  14.8 °C 29.97 in /  1014.8 hPa Calm     63 % 0.00 in /  0 mm
21:04 71.8 °F /  22.1 °C 58.5 °F /  14.7 °C 29.97 in /  1014.8 hPa Calm   2.3 mph /  3.7 km/h 63 % 0.00 in /  0 mm
21:09 71.6 °F /  22 °C 58.8 °F /  14.9 °C 29.97 in /  1014.8 hPa Calm     64 % 0.00 in /  0 mm
21:14 71.6 °F /  22 °C 59.2 °F /  15.1 °C 29.97 in /  1014.8 hPa Calm     65 % 0.00 in /  0 mm
21:19 71.5 °F /  21.9 °C 59.1 °F /  15.1 °C 29.97 in /  1014.8 hPa Calm     65 % 0.00 in /  0 mm
21:24 71.4 °F /  21.9 °C 59.4 °F /  15.2 °C 29.97 in /  1014.8 hPa Calm   1.2 mph /  1.9 km/h 66 % 0.00 in /  0 mm
21:29 71.4 °F /  21.9 °C 59.4 °F /  15.2 °C 29.97 in /  1014.8 hPa SE 0.2 mph /  0.3 km/h 1.2 mph /  1.9 km/h 66 % 0.00 in /  0 mm
21:34 71.3 °F /  21.8 °C 59.8 °F /  15.4 °C 29.97 in /  1014.8 hPa SE 0.3 mph /  0.5 km/h 2.3 mph /  3.7 km/h 67 % 0.00 in /  0 mm
21:39 71.2 °F /  21.8 °C 59.7 °F /  15.4 °C 29.97 in /  1014.8 hPa Calm   1.2 mph /  1.9 km/h 67 % 0.00 in /  0 mm
21:44 71.1 °F /  21.7 °C 60.0 °F /  15.6 °C 29.97 in /  1014.8 hPa Calm     68 % 0.00 in /  0 mm
21:49 71.1 °F /  21.7 °C 60.0 °F /  15.6 °C 29.97 in /  1014.8 hPa Calm   1.2 mph /  1.9 km/h 68 % 0.00 in /  0 mm
21:54 70.9 °F /  21.6 °C 59.8 °F /  15.4 °C 29.97 in /  1014.8 hPa North 1.9 mph /  3.1 km/h 3.0 mph /  4.8 km/h 68 % 0.00 in /  0 mm
21:59 70.8 °F /  21.6 °C 59.7 °F /  15.4 °C 29.97 in /  1014.8 hPa North 0.3 mph /  0.5 km/h 1.2 mph /  1.9 km/h 68 % 0.00 in /  0 mm
22:04 70.7 °F /  21.5 °C 59.6 °F /  15.3 °C 29.97 in /  1014.8 hPa Calm     68 % 0.00 in /  0 mm
22:09 70.6 °F /  21.4 °C 59.5 °F /  15.3 °C 29.96 in /  1014.4 hPa Calm     68 % 0.00 in /  0 mm
22:14 70.5 °F /  21.4 °C 59.8 °F /  15.4 °C 29.96 in /  1014.4 hPa Calm     69 % 0.00 in /  0 mm
22:20 70.4 °F /  21.3 °C 59.7 °F /  15.4 °C 29.96 in /  1014.4 hPa Calm     69 % 0.00 in /  0 mm
22:25 70.4 °F /  21.3 °C 60.1 °F /  15.6 °C 29.96 in /  1014.4 hPa Calm     70 % 0.00 in /  0 mm
22:30 70.3 °F /  21.3 °C 60.4 °F /  15.8 °C 29.95 in /  1014.1 hPa Calm     71 % 0.00 in /  0 mm
22:35 70.2 °F /  21.2 °C 60.0 °F /  15.6 °C 29.96 in /  1014.4 hPa Calm     70 % 0.00 in /  0 mm
22:40 70.2 °F /  21.2 °C 60.7 °F /  15.9 °C 29.95 in /  1014.1 hPa Calm     72 % 0.00 in /  0 mm
22:45 70.2 °F /  21.2 °C 61.5 °F /  16.4 °C 29.95 in /  1014.1 hPa Calm     74 % 0.00 in /  0 mm
22:50 70.1 °F /  21.2 °C 61.8 °F /  16.6 °C 29.96 in /  1014.4 hPa Calm     75 % 0.00 in /  0 mm
22:55 70.0 °F /  21.1 °C 62.1 °F /  16.7 °C 29.95 in /  1014.1 hPa Calm     76 % 0.00 in /  0 mm
23:00 70.0 °F /  21.1 °C 62.1 °F /  16.7 °C 29.95 in /  1014.1 hPa Calm     76 % 0.00 in /  0 mm
23:05 69.9 °F /  21.1 °C 62.0 °F /  16.7 °C 29.95 in /  1014.1 hPa Calm     76 % 0.00 in /  0 mm
23:10 69.9 °F /  21.1 °C 62.0 °F /  16.7 °C 29.94 in /  1013.8 hPa Calm     76 % 0.00 in /  0 mm
23:15 69.8 °F /  21 °C 61.9 °F /  16.6 °C 29.95 in /  1014.1 hPa Calm     76 % 0.00 in /  0 mm
23:20 69.8 °F /  21 °C 61.9 °F /  16.6 °C 29.95 in /  1014.1 hPa Calm     76 % 0.00 in /  0 mm
23:26 69.7 °F /  20.9 °C 61.8 °F /  16.6 °C 29.95 in /  1014.1 hPa Calm     76 % 0.00 in /  0 mm
23:31 69.6 °F /  20.9 °C 61.7 °F /  16.5 °C 29.95 in /  1014.1 hPa Calm     76 % 0.00 in /  0 mm
23:36 69.6 °F /  20.9 °C 61.3 °F /  16.3 °C 29.95 in /  1014.1 hPa Calm     75 % 0.00 in /  0 mm
23:41 69.5 °F /  20.8 °C 61.6 °F /  16.4 °C 29.95 in /  1014.1 hPa Calm     76 % 0.00 in /  0 mm
23:46 69.5 °F /  20.8 °C 61.6 °F /  16.4 °C 29.94 in /  1013.8 hPa Calm     76 % 0.00 in /  0 mm
23:51 69.5 °F /  20.8 °C 61.6 °F /  16.4 °C 29.94 in /  1013.8 hPa Calm     76 % 0.00 in /  0 mm
23:56 69.5 °F /  20.8 °C 62.0 °F /  16.7 °C 29.94 in /  1013.8 hPa Calm     77 % 0.00 in /  0 mm
Crab Meadow Weather
Compliments of Weather Underground - 3 mb

Script developed by  Jim McMurry - jmcmurry@mwt.net Adapted for the template by  Wim van der Kuil - Leuven-Template.eu

Extremes: A total of 1,224.5 inches of snow fell over a 12-month period from February 1971 to February 1972 at Paradise, Mt. Ranier, in Washington State.